Terminal Aerodrome Forecast
Issued by NWS

Home | Current Version | Previous Version | Text Only | Print | Product List | Glossary On
Versions: 1 2 3 4 5 6 7 8 9 10 11 12 13 14 15 16 17
905
FTUS46 KSTO 221100
TAFRDD
TAF
KRDD 221123Z 2212/2312 VRB04KT P6SM BKN050
     FM222300 19008KT P6SM BKN050 OVC100 PROB30 2300/2304 -SHRA=

USA.gov is the U.S. government's official web portal to all federal, state and local government web resources and services.